Terminal Aerodrome Forecast
Issued by NWS

Home | Current Version | Previous Version | Graphics & Text | Print | Product List | Glossary On
Versions: 1 2 3 4 5 6 7 8 9 10 11 12 13 14 15 16 17
000
FTUS43 KBIS 232300
TAFJMS
TAF
KJMS 232320Z 2400/2424 32023G33KT P6SM OVC015
     FM240100 32021G31KT 5SM -SN OVC012
      TEMPO 2401/2404 2SM -SN
     FM241700 33020G28KT P6SM SCT023
     FM241900 33019G28KT P6SM SCT170=

USA.gov is the U.S. government's official web portal to all federal, state and local government web resources and services.